createdAt,value
2023-01-23T00:01:36.662Z,9.43
2023-01-23T00:04:06.133Z,6.93
2023-01-23T00:06:34.574Z,7.72
2023-01-23T00:09:02.875Z,10.55
2023-01-23T00:11:32.069Z,6.53
2023-01-23T00:14:03.103Z,6.32
2023-01-23T00:16:34.086Z,6.32
2023-01-23T00:19:02.374Z,5.80
2023-01-23T00:21:31.420Z,7.40
2023-01-23T00:24:01.661Z,6.88
2023-01-23T00:26:32.843Z,8.25
2023-01-23T00:29:02.534Z,9.88
2023-01-23T00:31:33.547Z,10.32
2023-01-23T00:34:03.296Z,7.82
2023-01-23T00:36:32.930Z,5.63
2023-01-23T00:39:01.640Z,5.60
2023-01-23T00:41:29.865Z,6.75
2023-01-23T00:43:58.167Z,6.35
2023-01-23T00:46:27.992Z,5.22
2023-01-23T00:48:58.106Z,5.63
2023-01-23T00:51:27.146Z,5.97
2023-01-23T00:53:55.427Z,4.45
2023-01-23T00:56:23.823Z,5.15
2023-01-23T00:58:52.110Z,4.47
2023-01-23T01:01:22.739Z,5.97
2023-01-23T01:03:52.613Z,5.72
2023-01-23T01:06:20.845Z,5.30
2023-01-23T01:08:50.917Z,5.15
2023-01-23T01:11:19.544Z,4.70
2023-01-23T01:13:47.871Z,5.18
2023-01-23T01:16:16.525Z,5.70
2023-01-23T01:18:45.127Z,5.40
2023-01-23T01:21:16.190Z,4.25
2023-01-23T01:23:44.872Z,5.72
2023-01-23T01:26:13.237Z,4.70
2023-01-23T01:28:43.263Z,4.75
2023-01-23T01:31:14.482Z,5.97
2023-01-23T01:33:43.767Z,4.57
2023-01-23T01:36:15.905Z,4.53
2023-01-23T01:38:44.468Z,4.55
2023-01-23T01:41:14.537Z,5.18
2023-01-23T01:43:43.902Z,5.03
2023-01-23T01:46:17.790Z,5.55
2023-01-23T01:48:52.255Z,6.20
2023-01-23T01:51:27.076Z,6.43
2023-01-23T01:54:04.477Z,5.60
2023-01-23T01:56:38.224Z,5.40
2023-01-23T01:59:07.906Z,5.40
2023-01-23T02:01:37.148Z,5.53
2023-01-23T02:04:09.927Z,5.50
2023-01-23T02:06:39.780Z,5.35
2023-01-23T02:09:15.809Z,4.70
2023-01-23T02:11:45.337Z,4.97
2023-01-23T02:14:14.741Z,4.38
2023-01-23T02:16:50.553Z,5.05
2023-01-23T02:19:31.066Z,5.00
2023-01-23T02:22:08.649Z,4.95
2023-01-23T02:24:42.859Z,6.00
2023-01-23T02:27:12.751Z,5.32
2023-01-23T02:29:42.838Z,5.93
2023-01-23T02:32:11.247Z,5.30
2023-01-23T02:34:39.485Z,5.78
2023-01-23T02:37:09.494Z,5.80
2023-01-23T02:39:37.797Z,5.25
2023-01-23T02:42:07.767Z,5.03
2023-01-23T02:44:49.998Z,4.47
2023-01-23T02:47:20.739Z,5.13
2023-01-23T02:49:48.900Z,4.78
2023-01-23T02:52:17.363Z,4.28
2023-01-23T02:54:45.526Z,4.97
2023-01-23T02:57:14.514Z,4.60
2023-01-23T03:00:00.503Z,5.43
2023-01-23T03:04:56.303Z,5.20
2023-01-23T03:07:24.546Z,4.97
2023-01-23T03:09:53.146Z,4.85
2023-01-23T03:12:21.397Z,4.43
2023-01-23T03:14:53.840Z,5.50
2023-01-23T03:17:22.583Z,4.55
2023-01-23T03:19:51.123Z,4.25
2023-01-23T03:22:20.891Z,4.60
2023-01-23T03:24:49.064Z,4.15
2023-01-23T03:27:17.392Z,5.10
2023-01-23T03:30:07.922Z,4.05
2023-01-23T03:32:38.724Z,3.53
2023-01-23T03:35:10.157Z,3.55
2023-01-23T03:37:40.099Z,3.67
2023-01-23T03:40:28.413Z,2.80
2023-01-23T03:42:56.684Z,2.58
2023-01-23T03:45:28.869Z,4.32
2023-01-23T03:47:57.746Z,4.13
2023-01-23T03:50:25.904Z,3.17
2023-01-23T03:52:56.307Z,3.53
2023-01-23T03:55:24.649Z,3.08
2023-01-23T03:57:54.647Z,3.33
2023-01-23T04:00:27.835Z,4.43
2023-01-23T04:03:01.585Z,3.58
2023-01-23T04:05:30.391Z,3.92
2023-01-23T04:07:59.998Z,3.85
2023-01-23T04:10:28.421Z,4.10
2023-01-23T04:13:02.566Z,3.95
2023-01-23T04:15:33.472Z,4.60
2023-01-23T04:18:03.654Z,4.00
2023-01-23T04:20:31.900Z,4.05
2023-01-23T04:23:02.017Z,4.15
2023-01-23T04:25:31.498Z,4.57
2023-01-23T04:27:59.722Z,4.95
2023-01-23T04:30:28.593Z,4.72
2023-01-23T04:33:00.439Z,5.03
2023-01-23T04:35:28.826Z,4.55
2023-01-23T04:37:57.181Z,4.85
2023-01-23T04:40:26.764Z,4.85
2023-01-23T04:42:58.685Z,4.13
2023-01-23T04:45:32.753Z,4.70
2023-01-23T04:48:23.412Z,3.85
2023-01-23T04:50:52.514Z,3.97
2023-01-23T04:53:21.084Z,3.72
2023-01-23T04:55:58.402Z,3.38
2023-01-23T04:58:26.683Z,3.00
2023-01-23T05:01:03.628Z,3.13
2023-01-23T05:03:35.325Z,3.20
2023-01-23T05:06:03.750Z,3.03
2023-01-23T05:08:31.975Z,3.97
2023-01-23T05:11:22.043Z,2.80
2023-01-23T05:13:50.700Z,3.42
2023-01-23T05:16:20.104Z,3.83
2023-01-23T05:19:06.739Z,4.57
2023-01-23T05:21:36.452Z,3.42
2023-01-23T05:24:05.259Z,3.42
2023-01-23T05:26:35.538Z,3.88
2023-01-23T05:29:04.592Z,3.75
2023-01-23T05:31:36.732Z,3.63
2023-01-23T05:34:23.364Z,3.15
2023-01-23T05:36:51.997Z,3.85
2023-01-23T05:39:20.213Z,3.45
2023-01-23T05:41:50.025Z,2.88
2023-01-23T05:44:36.395Z,2.72
2023-01-23T05:47:08.874Z,4.05
2023-01-23T05:49:37.120Z,3.28
2023-01-23T05:52:05.511Z,3.72
2023-01-23T05:54:34.646Z,3.50
2023-01-23T05:57:05.404Z,3.20
2023-01-23T05:59:55.986Z,2.83
2023-01-23T06:02:42.835Z,3.65
2023-01-23T06:05:12.034Z,3.05
2023-01-23T06:08:02.536Z,2.55
2023-01-23T06:10:31.475Z,2.78
2023-01-23T06:13:00.952Z,2.67
2023-01-23T06:15:29.295Z,2.90
2023-01-23T06:17:59.432Z,2.97
2023-01-23T06:20:28.061Z,3.03
2023-01-23T06:22:56.494Z,2.50
2023-01-23T06:25:24.683Z,2.78
2023-01-23T06:27:55.196Z,2.95
2023-01-23T06:30:26.757Z,3.40
2023-01-23T06:32:54.991Z,2.95
2023-01-23T06:35:29.559Z,2.47
2023-01-23T06:37:57.806Z,2.75
2023-01-23T06:40:26.415Z,3.15
2023-01-23T06:43:12.752Z,2.55
2023-01-23T06:45:45.362Z,2.78
2023-01-23T06:48:14.568Z,3.10
2023-01-23T06:50:44.711Z,2.63
2023-01-23T06:53:17.374Z,3.33
2023-01-23T06:55:46.968Z,4.13
2023-01-23T06:58:16.636Z,3.50
2023-01-23T07:00:46.833Z,4.25
2023-01-23T07:03:33.282Z,3.38
2023-01-23T07:06:06.716Z,3.30
2023-01-23T07:08:35.464Z,3.15
2023-01-23T07:11:04.556Z,3.38
2023-01-23T07:13:33.191Z,3.35
2023-01-23T07:16:03.381Z,3.90
2023-01-23T07:18:32.770Z,3.58
2023-01-23T07:21:05.567Z,3.88
2023-01-23T07:23:34.069Z,3.22
2023-01-23T07:26:03.905Z,2.80
2023-01-23T07:28:32.344Z,3.25
2023-01-23T07:31:01.987Z,4.30
2023-01-23T07:33:30.392Z,3.85
2023-01-23T07:35:58.653Z,3.42
2023-01-23T07:38:27.057Z,3.70
2023-01-23T07:41:00.028Z,3.28
2023-01-23T07:43:28.755Z,2.45
2023-01-23T07:45:59.767Z,3.13
2023-01-23T07:48:29.634Z,2.95
2023-01-23T07:50:57.962Z,3.67
2023-01-23T07:53:26.327Z,3.67
2023-01-23T07:55:54.540Z,3.92
2023-01-23T07:58:22.756Z,3.58
2023-01-23T08:00:51.020Z,3.33
2023-01-23T08:03:20.849Z,3.97
2023-01-23T08:05:51.443Z,3.90
2023-01-23T08:08:19.667Z,3.85
2023-01-23T08:10:47.774Z,4.10
2023-01-23T08:13:16.055Z,3.95
2023-01-23T08:15:44.291Z,4.30
2023-01-23T08:18:12.542Z,3.70
2023-01-23T08:20:40.703Z,4.22
2023-01-23T08:23:10.432Z,4.13
2023-01-23T08:25:40.071Z,3.78
2023-01-23T08:28:08.397Z,4.03
2023-01-23T08:30:36.597Z,3.95
2023-01-23T08:33:05.855Z,3.95
2023-01-23T08:35:34.100Z,3.92
2023-01-23T08:38:04.042Z,3.60
2023-01-23T08:40:33.719Z,3.78
2023-01-23T08:43:01.995Z,3.70
2023-01-23T08:45:30.948Z,3.83
2023-01-23T08:47:59.327Z,3.58
2023-01-23T08:50:27.577Z,3.80
2023-01-23T08:52:56.290Z,4.15
2023-01-23T08:55:25.055Z,3.97
2023-01-23T08:57:54.654Z,3.88
2023-01-23T09:00:23.320Z,3.75
2023-01-23T09:02:51.797Z,3.67
2023-01-23T09:05:19.973Z,2.97
2023-01-23T09:07:49.074Z,3.17
2023-01-23T09:10:17.458Z,3.63
2023-01-23T09:12:45.639Z,3.38
2023-01-23T09:15:15.157Z,4.28
2023-01-23T09:17:43.449Z,3.55
2023-01-23T09:20:12.728Z,3.90
2023-01-23T09:22:41.014Z,3.53
2023-01-23T09:25:09.870Z,3.75
2023-01-23T09:27:38.153Z,5.03
2023-01-23T09:30:07.002Z,4.60
2023-01-23T09:32:36.590Z,4.00
2023-01-23T09:35:06.005Z,4.30
2023-01-23T09:38:02.129Z,3.30
2023-01-23T09:40:33.888Z,3.20
2023-01-23T09:43:09.771Z,5.28
2023-01-23T09:45:39.988Z,4.57
2023-01-23T09:48:22.015Z,5.70
2023-01-23T09:50:57.495Z,3.72
2023-01-23T09:53:31.198Z,3.60
2023-01-23T09:56:03.086Z,4.68
2023-01-23T09:58:38.593Z,3.85
2023-01-23T10:01:07.037Z,3.13
2023-01-23T10:03:36.571Z,4.13
2023-01-23T10:06:20.271Z,4.43
2023-01-23T10:09:04.833Z,3.20
2023-01-23T10:11:44.534Z,4.75
2023-01-23T10:14:35.857Z,4.18
2023-01-23T10:17:12.049Z,3.90
2023-01-23T10:19:57.593Z,4.22
2023-01-23T10:22:36.133Z,4.00
2023-01-23T10:25:14.204Z,4.35
2023-01-23T10:27:45.256Z,4.00
2023-01-23T10:30:22.183Z,3.72
2023-01-23T10:32:54.312Z,3.33
2023-01-23T10:35:31.015Z,4.07
2023-01-23T10:38:06.334Z,3.58
2023-01-23T10:40:52.089Z,3.75
2023-01-23T10:43:22.235Z,4.00
2023-01-23T10:45:51.232Z,4.80
2023-01-23T10:48:42.557Z,4.38
2023-01-23T10:51:33.244Z,4.07
2023-01-23T10:54:06.188Z,3.05
2023-01-23T10:56:37.452Z,3.40
2023-01-23T10:59:07.152Z,3.22
2023-01-23T11:01:38.808Z,4.25
2023-01-23T11:04:12.865Z,3.22
2023-01-23T11:06:42.402Z,3.15
2023-01-23T11:09:21.359Z,3.88
2023-01-23T11:12:01.736Z,2.60
2023-01-23T11:14:29.972Z,3.35
2023-01-23T11:17:06.890Z,3.35
2023-01-23T11:19:38.163Z,3.50
2023-01-23T11:22:27.280Z,2.85
2023-01-23T11:24:55.628Z,3.08
2023-01-23T11:27:28.125Z,2.75
2023-01-23T11:30:18.173Z,2.55
2023-01-23T11:32:52.762Z,2.90
2023-01-23T11:35:25.501Z,2.80
2023-01-23T11:37:57.215Z,2.53
2023-01-23T11:40:25.745Z,1.75
2023-01-23T11:42:55.738Z,1.65
2023-01-23T11:45:40.080Z,1.70
2023-01-23T11:50:55.899Z,1.83
2023-01-23T11:53:42.242Z,2.35
2023-01-23T11:56:32.773Z,1.50
2023-01-23T11:59:16.677Z,1.00
2023-01-23T12:02:03.090Z,2.30
2023-01-23T12:04:54.115Z,2.03
2023-01-23T12:07:24.277Z,1.70
2023-01-23T12:10:04.057Z,1.67
2023-01-23T12:12:55.753Z,1.75
2023-01-23T12:15:33.653Z,1.40
2023-01-23T12:18:13.936Z,2.15
2023-01-23T12:20:53.852Z,1.77
2023-01-23T12:23:37.748Z,1.92
2023-01-23T12:26:15.239Z,2.40
2023-01-23T12:29:01.549Z,2.05
2023-01-23T12:31:45.148Z,2.65
2023-01-23T12:34:29.660Z,2.58
2023-01-23T12:37:29.086Z,2.05
2023-01-23T12:40:06.059Z,2.33
2023-01-23T12:42:43.463Z,2.08
2023-01-23T12:45:20.644Z,1.63
2023-01-23T12:47:56.653Z,2.10
2023-01-23T12:50:36.191Z,1.52
2023-01-23T12:53:10.583Z,2.10
2023-01-23T12:55:42.734Z,1.65
2023-01-23T12:58:17.472Z,2.22
2023-01-23T13:00:57.062Z,1.98
2023-01-23T13:03:47.088Z,2.00
2023-01-23T13:06:36.416Z,1.90
2023-01-23T13:09:18.559Z,1.50
2023-01-23T13:11:58.818Z,2.30
2023-01-23T13:15:06.460Z,1.70
2023-01-23T13:17:38.700Z,1.80
2023-01-23T13:20:38.953Z,1.48
2023-01-23T13:23:27.454Z,1.38
2023-01-23T13:26:28.891Z,1.13
2023-01-23T13:28:58.920Z,1.35
2023-01-23T13:31:35.906Z,2.05
2023-01-23T13:34:24.837Z,2.60
2023-01-23T13:36:55.933Z,2.20
2023-01-23T13:39:28.462Z,2.72
2023-01-23T13:42:34.079Z,2.85
2023-01-23T13:45:24.549Z,3.10
2023-01-23T14:22:37.592Z,3.10
2023-01-23T14:25:17.449Z,2.97
2023-01-23T14:27:54.511Z,3.13
2023-01-23T14:30:27.110Z,3.20
2023-01-23T14:32:56.231Z,2.95
2023-01-23T14:35:27.840Z,3.70
2023-01-23T14:38:00.413Z,2.85
2023-01-23T14:40:35.350Z,2.75
2023-01-23T14:43:10.085Z,3.10
2023-01-23T14:45:38.882Z,2.13
2023-01-23T14:48:14.961Z,2.72
2023-01-23T14:50:43.846Z,3.17
2023-01-23T14:53:16.796Z,2.65
2023-01-23T14:55:49.852Z,3.28
2023-01-23T14:58:24.741Z,3.77
2023-01-23T15:00:55.017Z,3.38
2023-01-23T15:03:43.787Z,2.58
2023-01-23T15:06:15.872Z,2.90
2023-01-23T15:08:46.101Z,2.88
2023-01-23T15:11:14.755Z,2.70
2023-01-23T15:13:48.416Z,2.92
2023-01-23T15:16:20.936Z,2.83
2023-01-23T15:18:56.212Z,3.42
2023-01-23T15:21:30.222Z,2.85
2023-01-23T15:26:36.415Z,2.90
2023-01-23T15:29:18.772Z,2.83
2023-01-23T15:31:50.180Z,2.70
2023-01-23T15:34:24.028Z,3.08
2023-01-23T15:36:56.062Z,2.90
2023-01-23T15:39:28.602Z,3.00
2023-01-23T15:41:59.839Z,2.47
2023-01-23T15:44:29.981Z,3.88
2023-01-23T15:47:01.137Z,4.28
2023-01-23T15:49:29.965Z,4.78
2023-01-23T15:51:59.363Z,4.40
2023-01-23T15:54:33.515Z,3.55
2023-01-23T15:57:09.289Z,4.30
2023-01-23T15:59:38.354Z,3.80
2023-01-23T16:02:12.880Z,3.05
2023-01-23T16:04:47.387Z,3.90
2023-01-23T16:07:24.034Z,4.30
2023-01-23T16:09:55.287Z,5.03
2023-01-23T16:12:28.912Z,5.93
2023-01-23T16:14:57.944Z,5.72
2023-01-23T16:17:26.269Z,5.35
2023-01-23T16:19:54.641Z,5.65
2023-01-23T16:22:27.149Z,5.18
2023-01-23T16:24:57.447Z,4.22
2023-01-23T16:27:27.778Z,4.05
2023-01-23T16:29:57.128Z,3.65
2023-01-23T16:32:26.229Z,3.60
2023-01-23T16:34:54.443Z,3.60
2023-01-23T16:37:22.740Z,3.60
2023-01-23T16:39:51.075Z,2.90
2023-01-23T16:42:23.704Z,2.88
2023-01-23T16:44:52.406Z,3.13
2023-01-23T16:47:20.583Z,3.35
2023-01-23T16:49:53.536Z,3.20
2023-01-23T16:52:26.384Z,3.30
2023-01-23T16:54:56.423Z,2.88
2023-01-23T16:57:26.235Z,3.42
2023-01-23T16:59:56.612Z,3.47
2023-01-23T17:02:30.457Z,3.45
2023-01-23T17:07:26.913Z,3.15
2023-01-23T17:09:55.203Z,3.47
2023-01-23T17:12:27.684Z,3.88
2023-01-23T17:14:58.215Z,3.55
2023-01-23T17:17:30.951Z,3.60
2023-01-23T17:20:01.268Z,4.05
2023-01-23T17:22:31.579Z,3.63
2023-01-23T17:25:00.165Z,3.05
2023-01-23T17:27:28.399Z,3.35
2023-01-23T17:29:58.153Z,2.88
2023-01-23T17:32:32.283Z,3.50
2023-01-23T17:35:03.300Z,3.05
2023-01-23T17:37:31.992Z,3.75
2023-01-23T17:40:00.277Z,4.43
2023-01-23T17:42:28.738Z,3.63
2023-01-23T17:44:58.268Z,4.00
2023-01-23T17:47:26.533Z,4.25
2023-01-23T17:49:55.473Z,4.93
2023-01-23T17:52:24.973Z,5.28
2023-01-23T17:54:54.517Z,5.18
2023-01-23T17:57:23.374Z,5.30
2023-01-23T17:59:51.648Z,6.03
2023-01-23T18:02:28.200Z,7.95
2023-01-23T18:04:57.089Z,5.60
2023-01-23T18:07:25.590Z,5.70
2023-01-23T18:09:56.327Z,5.05
2023-01-23T18:12:38.799Z,5.70
2023-01-23T18:15:13.476Z,4.68
2023-01-23T18:17:49.549Z,4.35
2023-01-23T18:20:20.136Z,4.85
2023-01-23T18:22:48.954Z,4.85
2023-01-23T18:25:19.264Z,4.63
2023-01-23T18:27:52.495Z,4.20
2023-01-23T18:30:34.822Z,4.82
2023-01-23T18:33:16.588Z,4.18
2023-01-23T18:36:02.517Z,4.57
2023-01-23T18:38:39.861Z,5.10
2023-01-23T18:41:15.377Z,4.90
2023-01-23T18:44:05.857Z,4.47
2023-01-23T18:46:34.364Z,4.53
2023-01-23T18:49:04.705Z,5.10
2023-01-23T18:51:40.242Z,4.78
2023-01-23T18:54:21.195Z,4.53
2023-01-23T18:56:59.339Z,5.55
2023-01-23T18:59:36.913Z,4.43
2023-01-23T19:02:17.708Z,4.28
2023-01-23T19:04:52.479Z,4.20
2023-01-23T19:07:21.213Z,3.85
2023-01-23T19:09:49.659Z,4.75
2023-01-23T19:12:28.398Z,5.18
2023-01-23T19:15:07.785Z,4.78
2023-01-23T19:17:44.281Z,4.38
2023-01-23T19:20:26.370Z,5.03
2023-01-23T19:23:02.974Z,4.80
2023-01-23T19:25:31.453Z,5.75
2023-01-23T19:28:01.859Z,5.97
2023-01-23T19:30:30.634Z,3.75
2023-01-23T19:32:58.856Z,3.22
2023-01-23T19:35:28.658Z,3.40
2023-01-23T19:37:57.120Z,3.55
2023-01-23T19:40:25.409Z,3.38
2023-01-23T19:43:12.765Z,3.97
2023-01-23T19:45:42.751Z,3.95
2023-01-23T19:48:10.995Z,4.47
2023-01-23T19:50:41.096Z,3.78
2023-01-23T19:53:11.747Z,4.30
2023-01-23T19:55:39.992Z,4.82
2023-01-23T19:58:08.295Z,3.88
2023-01-23T20:00:37.159Z,4.78
2023-01-23T20:03:06.187Z,4.00
2023-01-23T20:05:34.631Z,5.35
2023-01-23T20:08:04.108Z,4.60
2023-01-23T20:10:32.313Z,4.80
2023-01-23T20:13:00.521Z,3.90
2023-01-23T20:15:29.991Z,4.00
2023-01-23T20:17:58.133Z,4.00
2023-01-23T20:20:26.551Z,4.45
2023-01-23T20:22:55.023Z,4.60
2023-01-23T20:25:24.564Z,4.13
2023-01-23T20:27:52.730Z,3.65
2023-01-23T20:30:22.412Z,3.75
2023-01-23T20:32:50.952Z,5.00
2023-01-23T20:35:19.424Z,4.25
2023-01-23T20:37:47.958Z,3.90
2023-01-23T20:40:16.448Z,3.03
2023-01-23T20:42:47.147Z,3.50
2023-01-23T20:45:15.676Z,3.38
2023-01-23T20:47:43.864Z,3.72
2023-01-23T20:50:12.527Z,3.05
2023-01-23T20:52:57.980Z,2.97
2023-01-23T20:55:26.265Z,4.03
2023-01-23T20:58:13.443Z,3.85
2023-01-23T21:00:41.781Z,3.10
2023-01-23T21:03:10.056Z,3.80
2023-01-23T21:05:38.286Z,2.97
2023-01-23T21:08:06.773Z,3.05
2023-01-23T21:10:35.033Z,3.13
2023-01-23T21:13:04.554Z,3.28
2023-01-23T21:15:33.401Z,3.38
2023-01-23T21:18:01.609Z,3.58
2023-01-23T21:20:29.887Z,3.00
2023-01-23T21:22:58.139Z,3.53
2023-01-23T21:25:26.963Z,3.08
2023-01-23T21:27:55.205Z,3.20
2023-01-23T21:30:24.811Z,3.85
2023-01-23T21:32:53.386Z,2.78
2023-01-23T21:35:21.849Z,3.25
2023-01-23T21:37:50.219Z,2.85
2023-01-23T21:40:18.612Z,3.38
2023-01-23T21:42:46.742Z,2.70
2023-01-23T21:45:15.141Z,2.85
2023-01-23T21:47:44.589Z,2.70
2023-01-23T21:50:12.967Z,3.33
2023-01-23T21:52:41.228Z,3.45
2023-01-23T21:55:09.934Z,4.13
2023-01-23T21:57:38.014Z,3.58
2023-01-23T22:00:24.738Z,3.88
2023-01-23T22:02:54.412Z,3.63
2023-01-23T22:05:23.074Z,3.20
2023-01-23T22:07:51.811Z,3.25
2023-01-23T22:10:19.980Z,2.95
2023-01-23T22:12:48.181Z,3.13
2023-01-23T22:15:16.512Z,4.20
2023-01-23T22:17:45.744Z,4.13
2023-01-23T22:20:15.417Z,3.25
2023-01-23T22:22:43.707Z,3.13
2023-01-23T22:25:11.933Z,3.88
2023-01-23T22:27:40.156Z,3.90
2023-01-23T22:30:09.512Z,4.38
2023-01-23T22:32:38.909Z,4.78
2023-01-23T22:35:09.375Z,4.80
2023-01-23T22:37:39.903Z,4.28
2023-01-23T22:40:09.414Z,3.05
2023-01-23T22:42:37.763Z,3.80
2023-01-23T22:45:06.654Z,3.28
2023-01-23T22:47:34.913Z,2.83
2023-01-23T22:50:03.036Z,3.30
2023-01-23T22:52:31.204Z,2.92
2023-01-23T22:55:00.657Z,2.85
2023-01-23T22:57:28.953Z,2.30
2023-01-23T22:59:57.060Z,2.13
2023-01-23T23:02:25.280Z,2.17
2023-01-23T23:04:53.912Z,2.58
2023-01-23T23:07:22.099Z,2.50
2023-01-23T23:09:50.279Z,3.05
2023-01-23T23:12:19.775Z,2.38
2023-01-23T23:14:48.089Z,2.70
2023-01-23T23:17:16.359Z,2.58
2023-01-23T23:19:44.478Z,2.65
2023-01-23T23:22:12.710Z,2.40
2023-01-23T23:24:40.874Z,2.85
2023-01-23T23:27:09.206Z,2.08
2023-01-23T23:29:38.703Z,2.28
2023-01-23T23:32:07.160Z,3.15
2023-01-23T23:34:36.444Z,3.22
2023-01-23T23:37:05.568Z,1.73
2023-01-23T23:39:33.841Z,2.38
2023-01-23T23:42:02.002Z,1.73
2023-01-23T23:44:30.181Z,1.83
2023-01-23T23:46:59.749Z,1.92
2023-01-23T23:49:28.040Z,1.70
2023-01-23T23:51:56.277Z,1.85
2023-01-23T23:54:24.415Z,3.30
2023-01-23T23:56:52.660Z,2.60
2023-01-23T23:59:20.819Z,1.58
